Time;durP1;ratioP1;P1;durP2;ratioP2;P2;SDS_P1;SDS_P2;PMS_P1;PMS_P2;Temp;Humidity;BMP_temperature;BMP_pressure;BME280_temperature;BME280_humidity;BME280_pressure;Samples;Min_cycle;Max_cycle;Signal;HPM_P1;HPM_P2
2022/04/16 00:01:20;;;;;;;26.63;15.40;;;7.30;92.50;;;;;;5069995;28;20105;-65
2022/04/16 00:03:46;;;;;;;28.05;16.05;;;7.20;92.40;;;;;;5064049;28;20471;-66
2022/04/16 00:06:11;;;;;;;32.78;16.63;;;7.10;92.50;;;;;;5062054;28;20041;-65
2022/04/16 00:08:37;;;;;;;28.25;15.85;;;7.00;92.50;;;;;;5065898;28;20381;-66
2022/04/16 00:11:06;;;;;;;29.55;15.68;;;7.00;92.60;;;;;;5064500;28;20155;-65
2022/04/16 00:13:32;;;;;;;33.65;17.08;;;6.90;92.60;;;;;;5072653;28;20040;-65
2022/04/16 00:15:58;;;;;;;25.83;15.13;;;6.80;92.90;;;;;;5075430;28;20045;-65
2022/04/16 00:18:24;;;;;;;28.40;15.07;;;6.80;92.80;;;;;;5054153;28;20047;-65
2022/04/16 00:20:51;;;;;;;28.92;15.43;;;6.80;92.80;;;;;;5093452;28;20047;-65
2022/04/16 00:23:21;;;;;;;32.92;16.55;;;6.70;92.70;;;;;;5092961;28;20503;-65
2022/04/16 00:25:50;;;;;;;32.38;16.52;;;6.60;92.90;;;;;;5080563;28;20044;-65
2022/04/16 00:28:15;;;;;;;29.92;16.20;;;6.60;93.10;;;;;;5067384;28;20557;-65
2022/04/16 00:30:41;;;;;;;30.00;15.98;;;6.50;92.90;;;;;;5091428;28;20080;-66
2022/04/16 00:33:10;;;;;;;31.25;17.13;;;6.40;92.90;;;;;;5068577;28;20169;-65
2022/04/16 00:35:37;;;;;;;32.75;16.63;;;6.40;93.20;;;;;;5068860;28;20044;-65
2022/04/16 00:38:03;;;;;;;32.30;15.93;;;6.40;93.00;;;;;;5091802;28;20476;-64
2022/04/16 00:40:29;;;;;;;29.83;16.33;;;6.30;93.10;;;;;;5067153;28;20047;-64
2022/04/16 00:42:55;;;;;;;28.75;15.88;;;6.20;93.00;;;;;;5072444;28;20452;-65
2022/04/16 00:45:21;;;;;;;27.40;15.13;;;6.20;93.20;;;;;;5075964;28;20041;-65
2022/04/16 00:47:47;;;;;;;29.90;15.05;;;6.20;93.20;;;;;;5084912;28;20043;-65
2022/04/16 00:50:13;;;;;;;30.52;17.02;;;6.20;93.20;;;;;;5076080;28;20044;-66
2022/04/16 00:52:40;;;;;;;29.80;15.02;;;6.20;93.10;;;;;;5052844;28;20102;-65
2022/04/16 00:55:08;;;;;;;28.90;16.25;;;6.20;93.40;;;;;;5041230;28;20404;-65
2022/04/16 00:57:37;;;;;;;33.17;16.77;;;6.20;93.40;;;;;;5033470;28;20131;-64
2022/04/16 01:00:04;;;;;;;29.98;16.90;;;6.20;93.20;;;;;;5043500;28;20060;-66
2022/04/16 01:02:30;;;;;;;33.90;17.25;;;6.30;93.40;;;;;;5051050;28;20466;-65
2022/04/16 01:04:55;;;;;;;32.47;16.73;;;6.30;93.80;;;;;;5044891;28;20112;-65
2022/04/16 01:07:25;;;;;;;34.15;16.85;;;6.20;93.70;;;;;;5034693;28;20026;-65
2022/04/16 01:09:51;;;;;;;33.92;17.25;;;6.10;93.40;;;;;;5035707;28;20570;-65
2022/04/16 01:12:17;;;;;;;31.30;16.55;;;6.10;93.40;;;;;;5045973;28;20041;-65
2022/04/16 01:14:43;;;;;;;31.70;16.52;;;6.10;93.60;;;;;;5046431;28;20080;-64
2022/04/16 01:17:09;;;;;;;31.73;17.63;;;6.00;93.50;;;;;;5038204;28;20041;-66
2022/04/16 01:19:37;;;;;;;29.75;16.33;;;6.00;93.50;;;;;;5046213;28;20048;-64
2022/04/16 01:22:05;;;;;;;33.88;18.38;;;6.00;93.60;;;;;;5046941;28;20056;-65
2022/04/16 01:24:31;;;;;;;35.45;18.45;;;6.00;93.80;;;;;;5042710;28;20041;-64
2022/04/16 01:26:58;;;;;;;37.55;20.10;;;6.00;93.70;;;;;;5042390;28;20116;-65
2022/04/16 01:29:24;;;;;;;37.65;19.02;;;6.00;93.80;;;;;;5032216;28;20373;-65
2022/04/16 01:31:50;;;;;;;33.15;17.67;;;6.00;94.00;;;;;;5032736;28;20080;-65
2022/04/16 01:34:17;;;;;;;38.67;19.05;;;6.00;93.80;;;;;;5030026;28;20065;-65
2022/04/16 01:36:43;;;;;;;37.17;17.67;;;6.00;93.80;;;;;;5032916;28;20041;-65
2022/04/16 01:39:08;;;;;;;35.40;17.75;;;6.00;93.80;;;;;;5032317;28;20110;-66
2022/04/16 01:41:35;;;;;;;36.45;17.65;;;5.90;93.80;;;;;;5041357;28;20524;-66
2022/04/16 01:44:00;;;;;;;33.78;17.88;;;5.80;93.80;;;;;;5048406;28;20052;-65
2022/04/16 01:46:27;;;;;;;32.38;17.33;;;5.70;93.60;;;;;;5048168;28;20041;-65
2022/04/16 01:48:56;;;;;;;33.40;17.17;;;5.60;93.70;;;;;;5032544;28;20044;-67
2022/04/16 01:51:22;;;;;;;32.20;17.20;;;5.50;93.70;;;;;;5045111;28;20495;-65
2022/04/16 01:53:48;;;;;;;29.58;16.08;;;5.40;93.70;;;;;;5068204;28;20057;-65
2022/04/16 01:56:14;;;;;;;35.67;17.33;;;5.40;93.80;;;;;;5036137;28;20178;-65
2022/04/16 01:58:41;;;;;;;30.67;16.83;;;5.50;94.00;;;;;;5039806;28;20037;-65
2022/04/16 02:01:10;;;;;;;35.83;18.30;;;5.40;94.00;;;;;;5044701;28;20127;-67
2022/04/16 02:03:36;;;;;;;34.70;17.50;;;5.50;94.50;;;;;;5047333;28;20072;-65
2022/04/16 02:06:05;;;;;;;29.40;15.75;;;5.40;94.10;;;;;;5039394;28;20045;-65
2022/04/16 02:08:31;;;;;;;32.97;17.27;;;5.40;94.20;;;;;;5036102;28;20041;-65
2022/04/16 02:10:56;;;;;;;29.63;15.95;;;5.40;94.10;;;;;;5032169;28;20033;-65
2022/04/16 02:13:22;;;;;;;32.47;16.88;;;5.50;94.30;;;;;;5031075;28;20435;-69
2022/04/16 02:15:47;;;;;;;34.65;17.00;;;5.50;94.10;;;;;;5036181;28;20480;-69
2022/04/16 02:18:13;;;;;;;29.90;16.70;;;5.50;94.00;;;;;;5041655;28;20092;-69
2022/04/16 02:20:41;;;;;;;33.75;17.48;;;5.60;94.10;;;;;;5032771;28;20416;-68
2022/04/16 02:23:08;;;;;;;35.70;19.10;;;5.70;94.10;;;;;;5032732;28;20037;-68
2022/04/16 02:25:34;;;;;;;37.92;19.48;;;5.80;94.30;;;;;;5044215;28;20443;-68
2022/04/16 02:27:59;;;;;;;39.00;19.52;;;5.90;94.30;;;;;;5040355;28;20380;-69
2022/04/16 02:30:25;;;;;;;47.60;21.48;;;6.00;94.20;;;;;;5039571;28;20030;-68
2022/04/16 02:32:58;;;;;;;47.17;22.52;;;6.20;94.50;;;;;;5030064;28;20595;-68
2022/04/16 02:35:24;;;;;;;47.20;22.40;;;6.30;94.70;;;;;;5031246;28;20385;-67
2022/04/16 02:37:50;;;;;;;51.05;20.92;;;6.50;94.80;;;;;;5031464;28;20049;-68
2022/04/16 02:40:16;;;;;;;49.47;23.55;;;6.60;95.00;;;;;;5050309;28;20041;-67
2022/04/16 02:42:43;;;;;;;56.85;24.45;;;6.80;95.20;;;;;;5050929;28;20428;-67
2022/04/16 02:47:56;;;;;;;47.03;22.33;;;7.00;94.80;;;;;;5032697;28;20051;-69
2022/04/16 02:50:27;;;;;;;46.58;23.17;;;7.10;94.80;;;;;;5015177;28;20415;-67
2022/04/16 02:52:54;;;;;;;57.08;26.02;;;7.20;94.90;;;;;;5019909;28;20053;-68
2022/04/16 02:55:19;;;;;;;52.42;24.38;;;7.30;94.70;;;;;;5030512;28;20132;-67
2022/04/16 02:57:45;;;;;;;54.22;25.67;;;7.30;94.70;;;;;;5031566;28;20449;-68
2022/04/16 03:00:13;;;;;;;53.65;25.35;;;7.40;94.60;;;;;;5030778;28;20077;-68
2022/04/16 03:02:39;;;;;;;50.03;25.08;;;7.40;94.70;;;;;;5040924;28;20049;-64
2022/04/16 03:05:09;;;;;;;53.67;25.73;;;7.50;94.70;;;;;;5026930;28;20033;-64
2022/04/16 03:07:38;;;;;;;53.90;25.92;;;7.60;94.60;;;;;;5035883;28;20103;-65
2022/04/16 03:10:05;;;;;;;55.47;25.05;;;7.60;94.50;;;;;;5031886;28;20045;-65
2022/04/16 03:12:48;;;;;;;54.63;25.27;;;7.60;94.40;;;;;;5037578;28;20045;-64
2022/04/16 03:18:00;;;;;;;54.50;26.20;;;7.60;94.40;;;;;;5034211;28;20041;-64
2022/04/16 03:20:29;;;;;;;50.13;25.67;;;7.70;94.40;;;;;;5038637;28;20456;-65
2022/04/16 03:22:55;;;;;;;50.95;24.73;;;7.70;94.70;;;;;;5024868;28;20045;-65
2022/04/16 03:25:21;;;;;;;54.78;26.33;;;7.70;94.30;;;;;;5042380;28;20120;-66
2022/04/16 03:27:46;;;;;;;51.58;25.98;;;7.70;94.40;;;;;;5032670;28;20120;-64
2022/04/16 03:30:12;;;;;;;56.95;26.42;;;7.70;94.40;;;;;;5037639;28;20473;-65
2022/04/16 03:32:39;;;;;;;47.40;24.90;;;7.80;94.40;;;;;;5033937;28;20056;-64
2022/04/16 03:35:05;;;;;;;49.35;24.10;;;7.80;94.30;;;;;;5041037;28;20048;-64
2022/04/16 03:37:35;;;;;;;45.40;23.45;;;7.80;94.10;;;;;;5038670;28;20380;-65
2022/04/16 03:40:01;;;;;;;45.88;23.55;;;7.80;94.00;;;;;;5042128;28;20061;-65
2022/04/16 03:42:27;;;;;;;41.08;21.70;;;7.80;93.90;;;;;;5030771;28;20131;-64
2022/04/16 03:44:53;;;;;;;44.58;24.17;;;7.80;93.70;;;;;;5044486;28;20048;-65
2022/04/16 03:47:18;;;;;;;42.05;23.30;;;7.80;93.60;;;;;;5050374;28;20128;-66
2022/04/16 03:49:44;;;;;;;40.92;22.27;;;7.80;93.60;;;;;;5040729;28;20044;-64
2022/04/16 03:52:09;;;;;;;41.78;21.27;;;7.80;93.50;;;;;;5041178;28;20052;-65
2022/04/16 04:00:05;;;;;;;40.05;21.92;;;7.80;93.70;;;;;;5044397;28;20182;-64
2022/04/16 04:02:36;;;;;;;45.90;21.80;;;7.80;93.30;;;;;;5036270;28;20053;-65
2022/04/16 04:05:03;;;;;;;34.83;20.42;;;7.70;93.20;;;;;;5040473;28;20433;-64
2022/04/16 04:07:29;;;;;;;37.78;19.88;;;7.70;93.10;;;;;;5035102;28;20044;-64
2022/04/16 04:09:55;;;;;;;38.47;20.88;;;7.70;93.00;;;;;;5036459;28;20421;-64
2022/04/16 04:12:20;;;;;;;35.13;18.40;;;7.70;93.00;;;;;;5029816;28;20043;-64
2022/04/16 04:14:46;;;;;;;32.25;18.13;;;7.70;92.90;;;;;;5029369;28;20033;-63
2022/04/16 04:17:13;;;;;;;30.48;17.52;;;7.60;92.80;;;;;;5040191;28;20065;-64
2022/04/16 04:19:47;;;;;;;30.02;17.20;;;7.60;92.60;;;;;;5028679;28;20038;-64
2022/04/16 04:22:15;;;;;;;36.90;18.52;;;7.50;92.50;;;;;;5035069;28;20057;-63
2022/04/16 04:24:41;;;;;;;34.28;17.92;;;7.50;92.50;;;;;;5036921;28;20463;-63
2022/04/16 04:27:07;;;;;;;29.38;16.77;;;7.50;92.60;;;;;;5039457;28;20041;-64
2022/04/16 04:29:34;;;;;;;31.48;16.98;;;7.50;92.50;;;;;;5040874;28;20033;-63
2022/04/16 04:32:00;;;;;;;34.80;16.63;;;7.40;92.50;;;;;;5052986;28;20060;-63
2022/04/16 04:34:26;;;;;;;33.45;17.05;;;7.50;92.40;;;;;;5049017;28;20041;-63
2022/04/16 04:36:51;;;;;;;33.28;17.20;;;7.50;92.40;;;;;;5040794;28;20424;-65
2022/04/16 04:39:20;;;;;;;29.10;16.85;;;7.40;92.40;;;;;;5042125;28;20044;-63
2022/04/16 04:41:46;;;;;;;29.85;17.10;;;7.50;92.50;;;;;;5054337;28;20098;-64
2022/04/16 04:44:15;;;;;;;35.55;16.15;;;7.40;92.50;;;;;;5051043;28;20032;-63
2022/04/16 04:46:42;;;;;;;35.00;16.27;;;7.40;92.30;;;;;;5040209;28;20129;-63
2022/04/16 04:49:08;;;;;;;30.30;15.85;;;7.40;92.30;;;;;;5035708;28;20041;-63
2022/04/16 04:51:35;;;;;;;26.55;13.82;;;7.40;92.20;;;;;;5037814;28;20059;-63
2022/04/16 04:54:01;;;;;;;28.88;15.85;;;7.50;92.10;;;;;;5049955;28;20489;-64
2022/04/16 04:56:28;;;;;;;29.83;15.77;;;7.50;92.00;;;;;;5049491;28;20041;-62
2022/04/16 04:58:53;;;;;;;31.90;15.70;;;7.50;92.00;;;;;;5052323;28;20110;-63
2022/04/16 05:01:19;;;;;;;28.40;16.83;;;7.50;92.00;;;;;;5042092;28;20033;-62
2022/04/16 05:03:45;;;;;;;28.35;14.65;;;7.60;92.00;;;;;;5032044;28;20049;-63
2022/04/16 05:06:10;;;;;;;31.15;15.88;;;7.50;92.00;;;;;;5054442;28;20485;-63
2022/04/16 05:08:36;;;;;;;27.20;15.68;;;7.50;92.00;;;;;;5033476;28;20076;-63
2022/04/16 05:11:01;;;;;;;29.25;14.48;;;7.60;92.00;;;;;;5034605;28;20125;-62
2022/04/16 05:13:27;;;;;;;29.00;15.25;;;7.60;91.70;;;;;;5032409;28;20449;-63
2022/04/16 05:15:52;;;;;;;28.70;14.43;;;7.60;91.70;;;;;;5048234;28;20049;-63
2022/04/16 05:18:18;;;;;;;30.88;14.82;;;7.60;91.70;;;;;;5038191;28;20041;-65
2022/04/16 05:20:43;;;;;;;29.38;14.75;;;7.60;91.70;;;;;;5043758;28;20037;-63
2022/04/16 05:23:09;;;;;;;21.60;13.35;;;7.70;91.70;;;;;;5032345;28;20037;-65
2022/04/16 05:25:34;;;;;;;21.67;12.63;;;7.70;91.30;;;;;;5040865;28;20045;-63
2022/04/16 05:28:00;;;;;;;24.13;11.95;;;7.70;90.50;;;;;;5042092;28;20033;-63
2022/04/16 05:30:33;;;;;;;23.77;11.85;;;7.70;90.40;;;;;;5032979;28;20048;-63
2022/04/16 05:33:05;;;;;;;19.88;11.23;;;7.70;90.50;;;;;;5031127;28;20051;-66
2022/04/16 05:35:31;;;;;;;22.30;12.45;;;7.70;90.30;;;;;;5031947;28;20481;-63
2022/04/16 05:37:56;;;;;;;26.88;12.73;;;7.70;90.20;;;;;;5049650;28;20072;-62
2022/04/16 05:40:22;;;;;;;20.33;11.82;;;7.70;90.30;;;;;;5042939;28;20037;-64
2022/04/16 05:42:47;;;;;;;26.73;12.75;;;7.70;90.20;;;;;;5050685;28;20494;-63
2022/04/16 05:45:14;;;;;;;26.60;12.30;;;7.80;90.20;;;;;;5034128;28;20064;-62
2022/04/16 05:47:41;;;;;;;22.17;11.20;;;7.80;89.80;;;;;;5045342;28;20037;-63
2022/04/16 05:50:08;;;;;;;23.75;11.75;;;7.80;89.50;;;;;;5031932;28;20043;-63
2022/04/16 05:52:34;;;;;;;27.15;12.65;;;7.80;89.60;;;;;;5043895;28;20061;-63
2022/04/16 05:55:01;;;;;;;23.70;12.75;;;7.80;89.20;;;;;;5043527;28;20045;-63
2022/04/16 05:57:28;;;;;;;24.27;12.48;;;7.80;89.20;;;;;;5049646;28;20128;-63
2022/04/16 05:59:57;;;;;;;25.00;13.02;;;7.90;89.60;;;;;;5034275;28;20508;-64
2022/04/16 06:02:23;;;;;;;20.00;11.57;;;7.90;89.40;;;;;;5036864;28;20037;-62
2022/04/16 06:04:49;;;;;;;21.52;11.48;;;8.00;89.60;;;;;;5044228;28;20503;-63
2022/04/16 06:07:15;;;;;;;22.95;11.38;;;8.20;89.30;;;;;;5051110;28;20040;-63
2022/04/16 06:09:41;;;;;;;19.38;10.95;;;8.30;89.00;;;;;;5039396;28;20040;-63
2022/04/16 06:12:09;;;;;;;19.65;9.43;;;8.50;88.20;;;;;;5044329;28;20041;-64
2022/04/16 06:14:35;;;;;;;19.30;10.93;;;8.50;87.10;;;;;;5039276;28;20045;-63
2022/04/16 06:17:00;;;;;;;20.30;10.07;;;8.50;87.40;;;;;;5037612;28;20381;-65
2022/04/16 06:19:26;;;;;;;19.30;10.45;;;8.50;87.30;;;;;;5040245;28;20048;-64
2022/04/16 06:21:52;;;;;;;17.88;9.73;;;8.50;86.70;;;;;;5043509;28;20045;-63
2022/04/16 06:24:17;;;;;;;22.55;9.63;;;8.50;87.20;;;;;;5038252;28;20028;-63
2022/04/16 06:26:45;;;;;;;16.95;10.20;;;8.60;87.20;;;;;;5034896;28;20048;-63
2022/04/16 06:29:11;;;;;;;17.40;9.95;;;8.70;87.10;;;;;;5036794;28;20073;-64
2022/04/16 06:31:37;;;;;;;15.15;9.85;;;8.80;86.50;;;;;;5044804;28;20044;-63
2022/04/16 06:34:03;;;;;;;19.15;10.52;;;9.00;86.80;;;;;;5031532;28;20314;-64
2022/04/16 06:36:28;;;;;;;17.50;10.18;;;9.20;87.40;;;;;;5043961;28;20041;-63
2022/04/16 06:38:54;;;;;;;17.83;10.20;;;9.30;86.20;;;;;;5043420;28;20076;-64
2022/04/16 06:41:19;;;;;;;19.23;10.52;;;9.40;84.20;;;;;;5042512;28;21034;-65
2022/04/16 06:43:45;;;;;;;16.50;9.32;;;9.40;85.40;;;;;;5044275;28;20041;-63
2022/04/16 06:46:12;;;;;;;17.42;10.45;;;9.60;84.80;;;;;;5026012;28;20049;-64
2022/04/16 06:48:38;;;;;;;17.00;9.68;;;9.70;84.30;;;;;;5042530;28;20053;-66
2022/04/16 06:51:04;;;;;;;16.75;9.27;;;9.70;84.00;;;;;;5036981;28;20507;-66
2022/04/16 06:53:30;;;;;;;13.27;9.20;;;9.90;83.70;;;;;;5017129;28;20049;-67
2022/04/16 06:55:58;;;;;;;16.63;9.32;;;10.10;83.20;;;;;;5019648;28;20048;-67
2022/04/16 06:58:24;;;;;;;13.35;8.13;;;10.30;83.90;;;;;;5032343;28;20060;-65
2022/04/16 07:00:50;;;;;;;14.13;7.85;;;10.50;83.60;;;;;;5031832;28;20037;-66
2022/04/16 07:03:15;;;;;;;11.13;6.68;;;10.80;81.50;;;;;;5036418;28;20110;-67
2022/04/16 07:05:41;;;;;;;12.20;7.40;;;10.80;80.60;;;;;;5041457;28;20037;-65
2022/04/16 07:08:07;;;;;;;10.18;6.65;;;10.70;76.30;;;;;;5027601;28;20118;-66
2022/04/16 07:10:32;;;;;;;9.20;6.28;;;10.90;78.70;;;;;;5036917;28;20037;-67
2022/04/16 07:12:58;;;;;;;8.82;5.55;;;10.90;77.00;;;;;;5047463;28;20037;-65
2022/04/16 07:15:23;;;;;;;10.45;5.60;;;10.90;76.20;;;;;;5042578;28;20444;-66
2022/04/16 07:17:49;;;;;;;8.98;5.55;;;11.20;76.40;;;;;;5043771;28;20051;-67
2022/04/16 07:20:14;;;;;;;8.90;5.50;;;11.30;75.10;;;;;;5029256;28;20044;-66
2022/04/16 07:22:40;;;;;;;7.45;4.68;;;11.20;72.30;;;;;;5031621;28;20041;-67
2022/04/16 07:25:06;;;;;;;8.35;4.10;;;11.40;69.50;;;;;;5032514;28;20124;-67
2022/04/16 07:27:32;;;;;;;7.18;3.88;;;11.30;69.20;;;;;;5031020;28;20099;-65
2022/04/16 07:29:58;;;;;;;10.82;4.80;;;11.10;68.70;;;;;;5034562;28;20033;-66
2022/04/16 07:32:26;;;;;;;5.72;3.90;;;11.30;69.00;;;;;;5042160;28;20052;-67
2022/04/16 07:34:52;;;;;;;7.03;4.18;;;11.60;68.30;;;;;;5034546;28;20052;-66
2022/04/16 07:37:19;;;;;;;6.65;3.83;;;11.60;66.70;;;;;;5025693;28;20577;-70
2022/04/16 07:39:45;;;;;;;6.32;4.00;;;11.90;66.70;;;;;;5042478;28;20033;-66
2022/04/16 07:42:10;;;;;;;6.65;3.92;;;11.90;66.10;;;;;;5041099;28;20045;-67
2022/04/16 07:44:36;;;;;;;7.93;4.07;;;12.10;65.00;;;;;;5032466;28;20633;-66
2022/04/16 07:47:02;;;;;;;6.72;4.30;;;12.00;63.60;;;;;;5034585;28;20539;-66
2022/04/16 07:49:27;;;;;;;7.68;4.32;;;12.20;64.30;;;;;;5040247;28;20044;-67
2022/04/16 07:51:53;;;;;;;7.55;4.13;;;12.40;64.20;;;;;;5050741;28;20048;-70
2022/04/16 07:54:19;;;;;;;9.13;5.35;;;12.60;62.30;;;;;;5028355;28;20065;-67
2022/04/16 07:56:45;;;;;;;9.15;6.10;;;12.70;64.00;;;;;;5042620;28;20037;-69
2022/04/16 07:59:12;;;;;;;9.05;5.32;;;12.80;63.00;;;;;;5041119;28;20047;-67
2022/04/16 08:01:38;;;;;;;8.65;5.28;;;13.20;63.50;;;;;;5049084;28;20033;-66
2022/04/16 08:04:04;;;;;;;7.18;4.95;;;13.10;61.60;;;;;;5008674;28;20362;-67
2022/04/16 08:06:30;;;;;;;7.47;4.68;;;13.50;62.50;;;;;;5032253;28;20052;-67
2022/04/16 08:09:00;;;;;;;7.88;4.57;;;13.50;61.80;;;;;;5049525;28;20036;-67
2022/04/16 08:11:30;;;;;;;7.25;4.93;;;13.70;61.30;;;;;;5053424;28;20477;-68
2022/04/16 08:13:57;;;;;;;9.30;4.88;;;13.90;59.20;;;;;;5047038;28;20045;-67
2022/04/16 08:16:22;;;;;;;6.40;4.45;;;13.90;58.60;;;;;;5042679;28;20036;-68
2022/04/16 08:18:48;;;;;;;7.63;4.47;;;13.70;59.00;;;;;;5033455;28;20041;-66
2022/04/16 08:21:14;;;;;;;8.20;4.40;;;13.50;59.40;;;;;;5053564;28;20121;-67
2022/04/16 08:23:55;;;;;;;9.82;4.93;;;13.30;58.20;;;;;;5041503;28;20590;-66
2022/04/16 08:26:24;;;;;;;6.18;4.10;;;13.00;58.10;;;;;;5035764;28;20042;-66
2022/04/16 08:28:51;;;;;;;6.38;3.92;;;12.80;56.60;;;;;;5048245;28;20443;-68
2022/04/16 08:31:17;;;;;;;5.35;3.28;;;12.80;57.50;;;;;;5050044;28;20037;-67
2022/04/16 08:33:43;;;;;;;5.85;4.22;;;12.50;56.80;;;;;;5031386;28;20628;-68
2022/04/16 08:36:11;;;;;;;4.85;3.40;;;12.60;55.60;;;;;;5042652;28;20045;-68
2022/04/16 08:38:37;;;;;;;5.93;3.05;;;12.80;55.40;;;;;;5042060;28;20041;-66
2022/04/16 08:41:04;;;;;;;7.60;3.88;;;13.00;54.40;;;;;;5066823;28;20528;-68
2022/04/16 08:43:30;;;;;;;5.82;3.45;;;13.30;52.50;;;;;;5067787;28;20052;-69
2022/04/16 08:46:00;;;;;;;7.80;3.70;;;13.70;52.20;;;;;;5051962;28;20041;-70
2022/04/16 08:48:29;;;;;;;6.22;3.22;;;14.20;50.10;;;;;;5046998;28;20044;-70
2022/04/16 08:50:57;;;;;;;6.15;3.47;;;14.80;50.00;;;;;;5044464;28;20045;-67
2022/04/16 08:53:22;;;;;;;5.13;3.13;;;15.50;48.80;;;;;;5047608;28;20063;-69
2022/04/16 08:55:50;;;;;;;5.63;3.25;;;15.90;49.10;;;;;;5052414;28;20123;-68
2022/04/16 08:58:19;;;;;;;5.20;3.33;;;16.40;46.30;;;;;;5044359;28;20091;-70
2022/04/16 09:00:44;;;;;;;4.30;2.97;;;16.90;45.30;;;;;;5054206;28;20464;-67
2022/04/16 09:03:11;;;;;;;4.88;3.25;;;17.00;45.60;;;;;;5044050;28;20064;-67
2022/04/16 09:05:37;;;;;;;4.65;2.67;;;17.20;44.80;;;;;;5020067;28;20053;-68
2022/04/16 09:08:04;;;;;;;4.55;2.85;;;17.40;43.80;;;;;;5020668;28;20029;-69
2022/04/16 09:10:31;;;;;;;3.55;2.70;;;17.20;42.00;;;;;;5034304;28;20127;-69
2022/04/16 09:13:02;;;;;;;3.72;2.53;;;17.70;42.80;;;;;;5043292;28;20037;-69
2022/04/16 09:15:28;;;;;;;4.07;2.70;;;17.80;41.70;;;;;;5026711;28;20065;-68
2022/04/16 09:18:07;;;;;;;4.07;2.90;;;18.00;42.70;;;;;;5050401;28;20056;-69
2022/04/16 09:20:35;;;;;;;3.78;2.50;;;18.20;39.80;;;;;;5052253;28;20032;-69
2022/04/16 09:23:22;;;;;;;3.13;2.20;;;17.90;41.40;;;;;;5042879;28;20056;-69
2022/04/16 09:25:55;;;;;;;2.92;2.22;;;16.90;40.60;;;;;;5049891;28;20052;-70
2022/04/16 09:28:21;;;;;;;3.40;2.30;;;16.40;42.40;;;;;;5018144;28;20112;-69
2022/04/16 09:30:49;;;;;;;4.97;2.10;;;15.60;43.80;;;;;;5045823;28;20073;-70
2022/04/16 09:33:15;;;;;;;2.83;1.90;;;15.10;43.20;;;;;;5033813;28;20476;-68
2022/04/16 09:35:41;;;;;;;3.55;1.70;;;14.40;44.30;;;;;;5024505;28;20036;-68
2022/04/16 09:38:07;;;;;;;4.80;1.80;;;14.40;44.20;;;;;;5046239;28;20418;-68
2022/04/16 09:40:35;;;;;;;3.00;1.77;;;14.00;43.40;;;;;;5040900;28;20120;-68
2022/04/16 09:43:04;;;;;;;2.35;1.60;;;14.10;43.10;;;;;;5024403;28;20041;-69
2022/04/16 09:45:30;;;;;;;2.50;1.50;;;13.90;42.60;;;;;;5041393;28;20045;-69
2022/04/16 09:47:57;;;;;;;2.25;1.60;;;13.80;42.30;;;;;;5033949;28;20048;-70
2022/04/16 09:50:29;;;;;;;2.00;0.90;;;13.80;42.70;;;;;;5045637;28;20048;-65
2022/04/16 09:53:02;;;;;;;2.80;0.80;;;13.80;37.10;;;;;;5040299;28;20049;-67
2022/04/16 09:55:28;;;;;;;1.88;0.77;;;13.70;38.80;;;;;;5038649;28;20041;-69
2022/04/16 09:58:01;;;;;;;1.05;0.80;;;13.60;38.30;;;;;;5045018;28;20037;-71
2022/04/16 10:00:27;;;;;;;1.90;1.08;;;13.90;37.70;;;;;;5050430;28;20045;-69
2022/04/16 10:02:54;;;;;;;1.42;1.30;;;14.40;36.90;;;;;;5041080;28;20041;-70
2022/04/16 10:05:24;;;;;;;2.92;1.27;;;15.10;37.10;;;;;;5035663;28;20035;-69
2022/04/16 10:07:52;;;;;;;2.38;1.17;;;16.00;36.30;;;;;;5046066;28;20083;-68
2022/04/16 10:10:27;;;;;;;2.45;1.30;;;16.80;36.40;;;;;;5021498;28;20133;-68
2022/04/16 10:13:00;;;;;;;2.00;0.90;;;17.60;36.10;;;;;;5015539;28;20049;-70
2022/04/16 10:15:50;;;;;;;1.00;0.73;;;18.00;34.60;;;;;;5017792;28;20065;-68
2022/04/16 10:18:16;;;;;;;2.27;0.87;;;18.50;29.70;;;;;;5045640;28;20803;-68
2022/04/16 10:20:56;;;;;;;1.98;1.05;;;19.20;31.40;;;;;;5036746;28;20122;-67
2022/04/16 10:23:28;;;;;;;3.33;0.90;;;19.40;30.80;;;;;;5027321;28;20037;-66
2022/04/16 10:26:03;;;;;;;3.50;0.75;;;19.50;28.70;;;;;;5050333;28;20049;-67
2022/04/16 10:28:55;;;;;;;1.92;1.00;;;19.40;27.40;;;;;;5041598;28;20491;-68
2022/04/16 10:31:20;;;;;;;1.30;0.65;;;19.00;29.40;;;;;;5043603;28;20049;-68
2022/04/16 10:34:13;;;;;;;1.45;1.00;;;18.40;32.10;;;;;;5047865;28;20052;-68
2022/04/16 10:36:52;;;;;;;1.83;0.82;;;17.60;31.20;;;;;;5038276;28;20412;-70
2022/04/16 10:39:19;;;;;;;1.65;0.90;;;17.00;30.40;;;;;;5052896;28;20029;-69
2022/04/16 10:42:00;;;;;;;1.55;0.88;;;16.50;33.70;;;;;;5044286;28;20394;-68
2022/04/16 10:44:27;;;;;;;;;;;16.00;34.70;;;;;;5026050;28;20381;-68
2022/04/16 10:46:54;;;;;;;1.73;0.80;;;15.30;34.30;;;;;;5047564;28;20272;-69
2022/04/16 10:49:24;;;;;;;2.70;0.95;;;15.10;34.80;;;;;;5044312;28;20073;-69
2022/04/16 10:51:50;;;;;;;0.80;0.80;;;14.70;35.20;;;;;;5042474;28;20037;-68
2022/04/16 10:54:34;;;;;;;1.27;0.70;;;14.40;35.00;;;;;;5029013;28;20033;-68
2022/04/16 10:57:00;;;;;;;1.00;0.90;;;14.30;36.80;;;;;;5045164;28;20354;-68
2022/04/16 10:59:41;;;;;;;1.05;0.80;;;14.00;35.80;;;;;;5036914;28;20033;-67
2022/04/16 11:02:16;;;;;;;2.75;1.10;;;14.00;36.90;;;;;;5037403;28;20051;-69
2022/04/16 11:04:42;;;;;;;1.75;0.88;;;13.70;36.50;;;;;;5033947;28;20095;-69
2022/04/16 11:07:08;;;;;;;1.33;0.90;;;13.70;37.40;;;;;;5036822;28;20642;-66
2022/04/16 11:09:35;;;;;;;3.97;1.45;;;13.80;38.30;;;;;;5042362;28;20071;-67
2022/04/16 11:12:04;;;;;;;0.95;0.70;;;13.80;38.70;;;;;;5042206;28;20092;-67
2022/04/16 11:14:31;;;;;;;1.80;0.80;;;13.50;36.70;;;;;;5039002;28;20046;-67
2022/04/16 11:17:03;;;;;;;1.60;0.95;;;13.40;36.10;;;;;;5044218;28;20762;-68
2022/04/16 11:19:29;;;;;;;1.20;1.08;;;13.50;37.30;;;;;;5028738;28;20077;-67
2022/04/16 11:21:54;;;;;;;1.48;1.00;;;13.60;38.50;;;;;;5035660;28;20075;-70
2022/04/16 11:24:20;;;;;;;2.17;1.15;;;13.70;38.00;;;;;;5031623;28;20060;-69
2022/04/16 11:34:58;;;;;;;0.98;0.80;;;13.70;38.30;;;;;;5045069;28;20393;-68
2022/04/16 11:37:25;;;;;;;1.23;0.70;;;13.50;36.20;;;;;;5048096;28;20044;-68
2022/04/16 11:40:05;;;;;;;1.52;0.90;;;13.50;37.50;;;;;;5030881;28;20449;-68
2022/04/16 11:42:31;;;;;;;1.33;1.23;;;13.60;37.20;;;;;;5045783;28;20036;-67
2022/04/16 11:44:57;;;;;;;0.90;0.80;;;13.60;37.80;;;;;;5035628;28;20040;-67
2022/04/16 11:47:25;;;;;;;4.38;1.30;;;13.80;37.90;;;;;;5039779;28;20041;-66
2022/04/16 11:49:53;;;;;;;2.25;1.10;;;13.90;36.80;;;;;;5030245;28;20045;-69
2022/04/16 11:52:26;;;;;;;1.20;0.77;;;13.90;36.70;;;;;;5032648;28;20137;-66
2022/04/16 11:55:15;;;;;;;1.80;0.98;;;14.00;36.60;;;;;;5032104;28;20041;-65
2022/04/16 11:57:45;;;;;;;1.30;0.82;;;13.80;34.40;;;;;;5037552;28;20030;-68
2022/04/16 12:00:12;;;;;;;1.17;1.08;;;13.90;35.20;;;;;;5032270;28;20104;-67
2022/04/16 12:02:47;;;;;;;2.17;1.15;;;13.90;36.30;;;;;;5067545;28;20044;-66
2022/04/16 12:05:15;;;;;;;1.27;0.90;;;13.80;35.00;;;;;;5063273;28;20041;-67
2022/04/16 12:07:48;;;;;;;1.95;0.98;;;13.90;36.40;;;;;;5043776;28;20045;-68
2022/04/16 12:10:14;;;;;;;2.97;1.25;;;14.00;36.80;;;;;;5040739;28;20051;-66
2022/04/16 12:12:47;;;;;;;2.55;1.13;;;14.00;37.30;;;;;;5041468;28;20049;-69
2022/04/16 12:15:22;;;;;;;1.13;1.00;;;14.00;37.00;;;;;;5043899;28;20040;-68
2022/04/16 12:17:48;;;;;;;2.78;1.02;;;14.40;38.50;;;;;;5014635;28;20045;-68
2022/04/16 12:20:14;;;;;;;5.00;1.58;;;14.80;38.80;;;;;;5028657;28;20042;-67
2022/04/16 12:23:02;;;;;;;1.17;1.00;;;15.00;37.70;;;;;;5046315;28;20060;-69
2022/04/16 12:25:29;;;;;;;2.08;1.05;;;14.70;35.30;;;;;;5030823;28;20041;-71
2022/04/16 12:27:59;;;;;;;1.52;1.00;;;14.80;36.60;;;;;;5030635;28;20045;-68
2022/04/16 12:30:27;;;;;;;1.67;1.10;;;15.00;36.80;;;;;;5031428;28;20045;-67
2022/04/16 12:33:00;;;;;;;3.33;1.58;;;15.40;36.30;;;;;;5023015;28;20044;-71
2022/04/16 12:35:36;;;;;;;1.90;0.93;;;15.40;35.30;;;;;;5046161;28;20435;-67
2022/04/16 12:38:03;;;;;;;2.30;0.80;;;15.60;35.40;;;;;;5017536;28;20033;-72
2022/04/16 12:40:32;;;;;;;1.40;0.90;;;15.70;34.70;;;;;;5044708;28;20044;-70
2022/04/16 12:42:58;;;;;;;2.83;1.30;;;15.90;33.90;;;;;;5027069;28;20052;-69
2022/04/16 12:45:25;;;;;;;1.52;0.95;;;16.10;33.60;;;;;;5018980;28;20098;-68
2022/04/16 12:47:51;;;;;;;2.35;0.90;;;16.30;34.10;;;;;;5044770;28;20516;-69
2022/04/16 12:50:17;;;;;;;2.78;1.10;;;16.70;33.20;;;;;;5038480;28;20029;-68
2022/04/16 12:52:44;;;;;;;2.58;1.00;;;16.70;33.10;;;;;;5029400;28;20084;-68
2022/04/16 12:55:10;;;;;;;1.27;0.80;;;17.90;31.30;;;;;;5047928;28;20099;-70
2022/04/16 12:57:36;;;;;;;1.88;0.95;;;18.40;30.10;;;;;;5046474;28;20377;-68
2022/04/16 13:00:09;;;;;;;3.38;0.90;;;19.50;29.60;;;;;;5031243;28;20033;-67
2022/04/16 13:02:37;;;;;;;1.98;0.93;;;20.70;27.90;;;;;;5022329;28;20049;-68